createdAt,value
2022-11-06T00:00:22.604Z,101504.44
2022-11-06T00:01:23.569Z,101504.02
2022-11-06T00:02:24.316Z,101504.58
2022-11-06T00:03:25.115Z,101504.75
2022-11-06T00:04:28.635Z,101504.19
2022-11-06T00:05:26.495Z,101504.70
2022-11-06T00:06:27.387Z,101504.61
2022-11-06T00:07:28.203Z,101504.52
2022-11-06T00:08:29.096Z,101503.97
2022-11-06T00:09:29.973Z,101503.70
2022-11-06T00:10:30.677Z,101503.28
2022-11-06T00:11:31.518Z,101503.53
2022-11-06T00:12:32.542Z,101503.48
2022-11-06T00:13:33.318Z,101503.23
2022-11-06T00:14:34.095Z,101502.80
2022-11-06T00:15:35.015Z,101502.55
2022-11-06T00:16:36.866Z,101501.65
2022-11-06T00:16:46.828Z,101497.77
2022-11-06T00:17:45.465Z,101497.26
2022-11-06T00:18:46.313Z,101496.50
2022-11-06T00:19:47.136Z,101495.69
2022-11-06T00:20:47.981Z,101495.34
2022-11-06T00:21:48.240Z,101494.70
2022-11-06T00:22:49.068Z,101494.44
2022-11-06T00:23:49.957Z,101493.71
2022-11-06T00:24:50.923Z,101494.16
2022-11-06T00:25:51.686Z,101493.67
2022-11-06T00:26:54.580Z,101493.70
2022-11-06T00:27:52.832Z,101493.55
2022-11-06T00:28:40.800Z,101490.69
2022-11-06T00:29:40.684Z,101489.93
2022-11-06T00:30:41.573Z,101489.95
2022-11-06T00:31:41.786Z,101489.95
2022-11-06T00:32:43.621Z,101489.83
2022-11-06T00:33:43.438Z,101489.70
2022-11-06T00:34:45.658Z,101490.77
2022-11-06T00:35:44.541Z,101491.23
2022-11-06T00:36:44.713Z,101491.11
2022-11-06T00:37:46.570Z,101491.66
2022-11-06T00:38:45.788Z,101492.45
2022-11-06T00:39:45.987Z,101493.53
2022-11-06T00:40:46.875Z,101494.35
2022-11-06T00:41:47.704Z,101495.77
2022-11-06T00:41:57.168Z,101508.02
2022-11-06T00:42:58.542Z,101507.84
2022-11-06T00:43:58.417Z,101507.09
2022-11-06T00:44:59.298Z,101507.09
2022-11-06T00:45:59.379Z,101506.83
2022-11-06T00:47:00.051Z,101506.44
2022-11-06T00:48:00.065Z,101506.02
2022-11-06T00:49:00.976Z,101505.26
2022-11-06T00:50:02.465Z,101504.92
2022-11-06T00:51:01.924Z,101504.92
2022-11-06T00:52:02.507Z,101504.75
2022-11-06T00:53:02.730Z,101504.42
2022-11-06T00:54:03.533Z,101503.58
2022-11-06T00:55:04.278Z,101503.42
2022-11-06T00:56:06.011Z,101502.14
2022-11-06T00:57:05.240Z,101501.33
2022-11-06T00:58:06.304Z,101500.47
2022-11-06T00:59:06.423Z,101499.53
2022-11-06T01:00:07.183Z,101498.77
2022-11-06T01:01:08.189Z,101497.70
2022-11-06T01:02:08.461Z,101496.91
2022-11-06T01:03:09.137Z,101495.94
2022-11-06T01:04:09.277Z,101494.89
2022-11-06T01:04:18.458Z,101486.41
2022-11-06T01:05:21.186Z,101485.57
2022-11-06T01:06:20.053Z,101485.32
2022-11-06T01:07:20.723Z,101484.95
2022-11-06T01:08:20.748Z,101484.84
2022-11-06T01:09:21.454Z,101484.73
2022-11-06T01:10:21.642Z,101484.24
2022-11-06T01:11:21.940Z,101484.38
2022-11-06T01:12:22.015Z,101484.22
2022-11-06T01:13:22.480Z,101484.05
2022-11-06T01:14:22.648Z,101484.48
2022-11-06T01:15:24.390Z,101485.38
2022-11-06T01:16:25.059Z,101485.88
2022-11-06T01:17:25.054Z,101486.19
2022-11-06T01:18:26.091Z,101486.36
2022-11-06T01:19:25.868Z,101486.34
2022-11-06T01:20:26.803Z,101486.01
2022-11-06T01:21:27.600Z,101485.91
2022-11-06T01:22:29.548Z,101485.37
2022-11-06T01:23:30.072Z,101485.43
2022-11-06T01:24:30.113Z,101484.59
2022-11-06T01:25:30.717Z,101484.23
2022-11-06T01:26:38.195Z,101484.99
2022-11-06T01:27:34.556Z,101485.39
2022-11-06T01:28:32.278Z,101485.70
2022-11-06T01:28:40.971Z,101503.41
2022-11-06T01:29:41.850Z,101502.57
2022-11-06T01:30:41.891Z,101502.06
2022-11-06T01:31:43.688Z,101501.81
2022-11-06T01:32:44.156Z,101500.89
2022-11-06T01:33:44.701Z,101500.95
2022-11-06T01:34:44.607Z,101500.38
2022-11-06T01:35:44.990Z,101499.84
2022-11-06T01:36:46.024Z,101499.51
2022-11-06T01:37:46.685Z,101498.22
2022-11-06T01:38:46.879Z,101497.64
2022-11-06T01:39:46.840Z,101496.86
2022-11-06T01:40:47.220Z,101496.83
2022-11-06T01:41:47.515Z,101496.89
2022-11-06T01:42:47.709Z,101496.53
2022-11-06T01:43:47.882Z,101496.88
2022-11-06T01:44:48.591Z,101496.93
2022-11-06T01:45:49.122Z,101496.43
2022-11-06T01:46:49.195Z,101496.06
2022-11-06T01:47:50.048Z,101496.12
2022-11-06T01:48:50.620Z,101496.02
2022-11-06T01:49:51.154Z,101495.10
2022-11-06T01:50:51.861Z,101494.48
2022-11-06T01:51:53.366Z,101494.21
2022-11-06T01:52:54.326Z,101493.51
2022-11-06T01:53:53.836Z,101492.50
2022-11-06T01:54:54.551Z,101492.31
2022-11-06T01:55:54.504Z,101491.98
2022-11-06T01:56:03.993Z,101473.06
2022-11-06T01:57:04.862Z,101472.73
2022-11-06T01:58:06.705Z,101472.89
2022-11-06T01:59:06.974Z,101472.30
2022-11-06T02:00:06.497Z,101471.80
2022-11-06T02:01:07.958Z,101470.95
2022-11-06T02:02:08.824Z,101470.53
2022-11-06T02:03:07.970Z,101470.03
2022-11-06T02:04:08.151Z,101469.45
2022-11-06T02:05:09.214Z,101468.44
2022-11-06T02:06:10.120Z,101467.77
2022-11-06T02:07:10.970Z,101467.01
2022-11-06T02:08:10.618Z,101466.22
2022-11-06T02:09:10.484Z,101465.72
2022-11-06T02:10:10.832Z,101465.53
2022-11-06T02:11:12.449Z,101464.86
2022-11-06T02:12:13.168Z,101464.27
2022-11-06T02:13:13.956Z,101464.08
2022-11-06T02:14:14.282Z,101464.05
2022-11-06T02:15:13.968Z,101464.48
2022-11-06T02:16:14.984Z,101464.61
2022-11-06T02:17:16.534Z,101464.95
2022-11-06T02:17:26.276Z,101454.67
2022-11-06T02:18:27.052Z,101454.34
2022-11-06T02:19:28.743Z,101453.84
2022-11-06T02:20:29.493Z,101453.67
2022-11-06T02:21:30.184Z,101454.00
2022-11-06T02:22:30.996Z,101454.26
2022-11-06T02:23:31.144Z,101453.92
2022-11-06T02:24:31.776Z,101454.26
2022-11-06T02:25:32.359Z,101455.02
2022-11-06T02:26:33.375Z,101455.36
2022-11-06T02:27:33.852Z,101455.91
2022-11-06T02:28:34.615Z,101455.41
2022-11-06T02:29:34.620Z,101455.84
2022-11-06T02:30:33.856Z,101455.66
2022-11-06T02:31:35.635Z,101456.09
2022-11-06T02:32:36.201Z,101455.66
2022-11-06T02:33:36.916Z,101455.41
2022-11-06T02:34:37.636Z,101455.13
2022-11-06T02:35:38.379Z,101455.13
2022-11-06T02:36:39.050Z,101455.47
2022-11-06T02:36:50.812Z,101454.56
2022-11-06T02:37:50.770Z,101454.73
2022-11-06T02:38:52.624Z,101454.81
2022-11-06T02:39:53.417Z,101455.15
2022-11-06T02:40:54.058Z,101455.98
2022-11-06T02:41:54.932Z,101456.41
2022-11-06T02:42:55.692Z,101456.35
2022-11-06T02:43:55.997Z,101457.11
2022-11-06T02:44:55.034Z,101456.96
2022-11-06T02:45:55.255Z,101457.38
2022-11-06T02:46:57.150Z,101456.91
2022-11-06T02:47:56.137Z,101456.31
2022-11-06T02:48:56.385Z,101455.91
2022-11-06T02:49:57.155Z,101455.02
2022-11-06T02:50:59.067Z,101454.19
2022-11-06T02:51:59.276Z,101453.63
2022-11-06T02:53:00.031Z,101452.91
2022-11-06T02:54:00.309Z,101452.29
2022-11-06T02:55:00.411Z,101452.03
2022-11-06T02:56:01.048Z,101450.81
2022-11-06T02:56:10.126Z,101438.02
2022-11-06T02:57:10.934Z,101437.63
2022-11-06T02:58:13.009Z,101437.88
2022-11-06T02:59:12.783Z,101437.56
2022-11-06T03:00:14.149Z,101437.05
2022-11-06T03:01:14.052Z,101436.48
2022-11-06T03:02:14.155Z,101436.27
2022-11-06T03:03:14.061Z,101435.19
2022-11-06T03:04:15.867Z,101434.95
2022-11-06T03:05:16.023Z,101435.06
2022-11-06T03:06:16.957Z,101434.30
2022-11-06T03:07:17.819Z,101434.74
2022-11-06T03:08:17.229Z,101435.02
2022-11-06T03:09:18.352Z,101435.12
2022-11-06T03:10:18.487Z,101435.64
2022-11-06T03:11:18.753Z,101435.92
2022-11-06T03:12:19.611Z,101436.03
2022-11-06T03:13:20.128Z,101436.22
2022-11-06T03:14:21.088Z,101436.58
2022-11-06T03:15:21.871Z,101437.36
2022-11-06T03:16:21.430Z,101437.13
2022-11-06T03:17:22.476Z,101437.56
2022-11-06T03:17:31.147Z,101441.46
2022-11-06T03:18:32.370Z,101441.30
2022-11-06T03:19:33.047Z,101440.73
2022-11-06T03:20:33.779Z,101440.65
2022-11-06T03:21:33.849Z,101440.73
2022-11-06T03:22:34.486Z,101439.91
2022-11-06T03:23:35.210Z,101439.33
2022-11-06T03:24:36.192Z,101437.98
2022-11-06T03:25:36.693Z,101437.08
2022-11-06T03:26:36.766Z,101435.81
2022-11-06T03:27:37.047Z,101434.89
2022-11-06T03:28:36.090Z,101433.83
2022-11-06T03:29:37.656Z,101432.82
2022-11-06T03:30:38.245Z,101431.86
2022-11-06T03:31:37.680Z,101430.44
2022-11-06T03:32:39.634Z,101429.35
2022-11-06T03:33:40.268Z,101428.66
2022-11-06T03:34:41.248Z,101427.23
2022-11-06T03:35:41.069Z,101426.36
2022-11-06T03:35:50.362Z,101402.11
2022-11-06T03:36:51.004Z,101401.44
2022-11-06T03:37:52.663Z,101400.69
2022-11-06T03:38:53.446Z,101400.00
2022-11-06T03:39:53.780Z,101399.17
2022-11-06T03:40:54.455Z,101398.30
2022-11-06T03:41:54.479Z,101397.47
2022-11-06T03:42:55.271Z,101396.80
2022-11-06T03:43:55.241Z,101396.20
2022-11-06T03:44:57.168Z,101395.89
2022-11-06T03:45:58.046Z,101395.75
2022-11-06T03:46:57.254Z,101395.54
2022-11-06T03:47:58.649Z,101395.81
2022-11-06T03:48:58.758Z,101395.75
2022-11-06T03:49:59.556Z,101395.59
2022-11-06T03:51:00.371Z,101395.45
2022-11-06T03:52:01.294Z,101395.33
2022-11-06T03:53:01.547Z,101395.52
2022-11-06T03:54:02.316Z,101394.61
2022-11-06T03:55:01.542Z,101394.62
2022-11-06T03:55:12.206Z,101395.64
2022-11-06T03:56:13.756Z,101395.47
2022-11-06T03:57:14.424Z,101394.72
2022-11-06T03:58:15.042Z,101395.55
2022-11-06T03:59:14.347Z,101396.00
2022-11-06T04:00:14.545Z,101397.01
2022-11-06T04:01:16.203Z,101396.59
2022-11-06T04:02:15.710Z,101397.17
2022-11-06T04:03:16.413Z,101397.59
2022-11-06T04:04:17.590Z,101398.26
2022-11-06T04:05:17.637Z,101399.05
2022-11-06T04:06:18.375Z,101399.87
2022-11-06T04:07:19.160Z,101401.41
2022-11-06T04:08:19.643Z,101402.78
2022-11-06T04:09:20.447Z,101404.78
2022-11-06T04:10:20.634Z,101405.81
2022-11-06T04:11:20.862Z,101407.20
2022-11-06T04:12:21.631Z,101408.23
2022-11-06T04:13:22.533Z,101408.75
2022-11-06T04:14:22.573Z,101409.27
2022-11-06T04:14:32.204Z,101433.13
2022-11-06T04:15:33.541Z,101432.46
2022-11-06T04:16:34.357Z,101431.23
2022-11-06T04:17:34.037Z,101430.73
2022-11-06T04:18:35.687Z,101429.80
2022-11-06T04:19:36.661Z,101429.30
2022-11-06T04:20:37.563Z,101428.65
2022-11-06T04:21:38.458Z,101427.56
2022-11-06T04:22:39.443Z,101427.21
2022-11-06T04:23:40.227Z,101426.81
2022-11-06T04:24:40.927Z,101427.09
2022-11-06T04:25:41.703Z,101427.78
2022-11-06T04:26:42.014Z,101428.39
2022-11-06T04:27:41.552Z,101428.98
2022-11-06T04:28:43.378Z,101429.51
2022-11-06T04:29:44.036Z,101429.70
2022-11-06T04:30:44.645Z,101430.22
2022-11-06T04:31:45.667Z,101430.99
2022-11-06T04:32:44.960Z,101431.85
2022-11-06T04:33:46.937Z,101432.20
2022-11-06T04:33:56.563Z,101448.41
2022-11-06T04:34:57.617Z,101448.24
2022-11-06T04:35:58.371Z,101447.73
2022-11-06T04:36:57.665Z,101447.06
2022-11-06T04:37:59.315Z,101447.29
2022-11-06T04:38:58.719Z,101447.21
2022-11-06T04:40:00.137Z,101446.63
2022-11-06T04:41:00.807Z,101446.09
2022-11-06T04:42:01.063Z,101445.60
2022-11-06T04:43:01.813Z,101444.83
2022-11-06T04:44:03.378Z,101443.55
2022-11-06T04:45:03.060Z,101442.60
2022-11-06T04:46:02.121Z,101441.69
2022-11-06T04:47:03.549Z,101440.49
2022-11-06T04:48:02.499Z,101439.21
2022-11-06T04:49:04.439Z,101438.27
2022-11-06T04:50:05.241Z,101437.58
2022-11-06T04:51:07.042Z,101436.67
2022-11-06T04:52:06.071Z,101435.30
2022-11-06T04:53:06.529Z,101434.02
2022-11-06T04:54:07.191Z,101432.58
2022-11-06T04:54:15.939Z,101413.26
2022-11-06T04:55:17.396Z,101412.76
2022-11-06T04:56:21.320Z,101412.09
2022-11-06T04:57:16.857Z,101411.41
2022-11-06T04:58:18.660Z,101411.47
2022-11-06T04:59:19.549Z,101411.13
2022-11-06T05:00:20.314Z,101411.31
2022-11-06T05:01:20.521Z,101410.22
2022-11-06T05:02:19.799Z,101410.11
2022-11-06T05:03:20.423Z,101409.92
2022-11-06T05:04:21.133Z,101409.52
2022-11-06T05:05:22.115Z,101409.23
2022-11-06T05:06:28.718Z,101408.97
2022-11-06T05:07:22.562Z,101408.86
2022-11-06T05:08:24.264Z,101407.91
2022-11-06T05:09:24.190Z,101406.83
2022-11-06T05:10:24.358Z,101405.94
2022-11-06T05:11:25.662Z,101404.86
2022-11-06T05:12:26.264Z,101403.84
2022-11-06T05:13:26.952Z,101402.89
2022-11-06T05:14:27.376Z,101402.53
2022-11-06T05:14:36.080Z,101392.78
2022-11-06T05:15:36.713Z,101392.62
2022-11-06T05:16:37.162Z,101391.69
2022-11-06T05:17:38.335Z,101391.70
2022-11-06T05:18:37.685Z,101391.11
2022-11-06T05:19:39.585Z,101390.27
2022-11-06T05:20:40.237Z,101390.33
2022-11-06T05:21:41.103Z,101390.11
2022-11-06T05:22:41.874Z,101389.77
2022-11-06T05:23:42.712Z,101389.48
2022-11-06T05:24:43.576Z,101389.74
2022-11-06T05:25:44.470Z,101389.41
2022-11-06T05:26:43.693Z,101388.56
2022-11-06T05:27:45.445Z,101387.64
2022-11-06T05:28:45.214Z,101387.40
2022-11-06T05:29:45.909Z,101386.61
2022-11-06T05:30:47.222Z,101385.95
2022-11-06T05:31:47.971Z,101384.83
2022-11-06T05:32:48.544Z,101383.73
2022-11-06T05:33:48.256Z,101382.81
2022-11-06T05:34:50.063Z,101381.64
2022-11-06T05:35:03.794Z,101365.79
2022-11-06T05:36:05.567Z,101364.86
2022-11-06T05:37:06.351Z,101364.36
2022-11-06T05:38:05.958Z,101363.69
2022-11-06T05:39:07.621Z,101362.52
2022-11-06T05:40:07.092Z,101361.08
2022-11-06T05:41:07.886Z,101359.65
2022-11-06T05:42:08.892Z,101358.00
2022-11-06T05:43:07.922Z,101356.14
2022-11-06T05:44:08.533Z,101354.99
2022-11-06T05:45:10.461Z,101353.75
2022-11-06T05:46:29.707Z,101352.86
2022-11-06T05:47:10.718Z,101352.06
2022-11-06T05:48:12.340Z,101351.49
2022-11-06T05:49:11.218Z,101350.17
2022-11-06T05:50:12.700Z,101349.95
2022-11-06T05:51:12.230Z,101348.94
2022-11-06T05:52:13.172Z,101348.20
2022-11-06T05:53:14.896Z,101347.30
2022-11-06T05:54:14.765Z,101345.98
2022-11-06T05:55:15.868Z,101345.49
2022-11-06T05:56:15.055Z,101343.83
2022-11-06T05:56:24.734Z,101322.63
2022-11-06T05:57:25.784Z,101321.89
2022-11-06T05:58:26.492Z,101321.47
2022-11-06T05:59:27.127Z,101321.13
2022-11-06T06:00:26.382Z,101320.31
2022-11-06T06:01:28.119Z,101319.25
2022-11-06T06:02:27.865Z,101317.92
2022-11-06T06:03:29.302Z,101317.53
2022-11-06T06:04:29.010Z,101316.38
2022-11-06T06:05:30.113Z,101315.47
2022-11-06T06:06:30.399Z,101314.48
2022-11-06T06:07:31.033Z,101312.99
2022-11-06T06:08:31.670Z,101312.00
2022-11-06T06:09:32.523Z,101310.26
2022-11-06T06:10:33.419Z,101309.19
2022-11-06T06:11:34.218Z,101307.55
2022-11-06T06:12:34.527Z,101306.64
2022-11-06T06:13:35.373Z,101305.09
2022-11-06T06:15:05.807Z,101280.81
2022-11-06T06:16:07.747Z,101280.39
2022-11-06T06:17:07.754Z,101280.51
2022-11-06T06:18:08.357Z,101280.92
2022-11-06T06:19:08.051Z,101280.75
2022-11-06T06:20:08.738Z,101281.28
2022-11-06T06:21:09.011Z,101280.71
2022-11-06T06:22:09.728Z,101280.70
2022-11-06T06:23:10.925Z,101280.78
2022-11-06T06:24:11.119Z,101279.80
2022-11-06T06:25:21.320Z,101280.22
2022-11-06T06:26:11.600Z,101280.25
2022-11-06T06:27:13.330Z,101280.50
2022-11-06T06:28:14.388Z,101280.86
2022-11-06T06:29:13.782Z,101281.19
2022-11-06T06:30:14.120Z,101281.20
2022-11-06T06:31:16.968Z,101280.70
2022-11-06T06:32:15.978Z,101280.81
2022-11-06T06:33:16.559Z,101280.22
2022-11-06T06:34:17.373Z,101280.55
2022-11-06T06:35:18.029Z,101280.39
2022-11-06T06:35:28.684Z,101273.76
2022-11-06T06:36:30.149Z,101273.25
2022-11-06T06:37:29.370Z,101272.92
2022-11-06T06:38:30.553Z,101272.42
2022-11-06T06:39:31.402Z,101271.91
2022-11-06T06:40:31.994Z,101271.08
2022-11-06T06:41:32.781Z,101269.82
2022-11-06T06:42:33.365Z,101268.95
2022-11-06T06:43:34.243Z,101268.30
2022-11-06T06:44:34.553Z,101267.59
2022-11-06T06:45:36.085Z,101266.52
2022-11-06T06:46:34.363Z,101266.31
2022-11-06T06:47:36.054Z,101266.24
2022-11-06T06:48:35.618Z,101265.88
2022-11-06T06:49:37.071Z,101266.28
2022-11-06T06:50:36.610Z,101266.34
2022-11-06T06:51:37.225Z,101266.60
2022-11-06T06:52:37.494Z,101267.08
2022-11-06T06:53:39.268Z,101267.42
2022-11-06T06:54:39.805Z,101267.98
2022-11-06T06:55:40.468Z,101268.64
2022-11-06T06:55:49.487Z,101280.70
2022-11-06T06:56:51.109Z,101280.38
2022-11-06T06:57:51.263Z,101280.03
2022-11-06T06:58:51.383Z,101279.70
2022-11-06T06:59:52.260Z,101279.78
2022-11-06T07:00:52.923Z,101280.20
2022-11-06T07:01:52.709Z,101279.88
2022-11-06T07:02:53.365Z,101279.77
2022-11-06T07:03:57.641Z,101279.42
2022-11-06T07:04:54.150Z,101279.85
2022-11-06T07:05:54.872Z,101280.02
2022-11-06T07:06:56.575Z,101279.93
2022-11-06T07:07:55.632Z,101280.27
2022-11-06T07:08:57.369Z,101280.77
2022-11-06T07:10:04.170Z,101281.19
2022-11-06T07:11:08.421Z,101281.44
2022-11-06T07:11:58.469Z,101281.94
2022-11-06T07:13:35.373Z,101282.47
2022-11-06T07:14:31.655Z,101282.47
2022-11-06T07:15:32.114Z,101282.31
2022-11-06T07:16:34.135Z,101282.06
2022-11-06T07:17:34.553Z,101282.62
2022-11-06T07:18:35.325Z,101283.38
2022-11-06T07:19:35.255Z,101283.63
2022-11-06T07:20:37.224Z,101284.78
2022-11-06T07:21:36.712Z,101285.11
2022-11-06T07:22:38.581Z,101285.54
2022-11-06T07:23:38.114Z,101286.35
2022-11-06T07:24:39.741Z,101286.86
2022-11-06T07:25:39.881Z,101287.84
2022-11-06T07:26:39.669Z,101288.69
2022-11-06T07:27:41.122Z,101289.50
2022-11-06T07:28:42.097Z,101290.91
2022-11-06T07:29:42.698Z,101291.58
2022-11-06T07:30:43.122Z,101292.56
2022-11-06T07:31:43.608Z,101293.41
2022-11-06T07:31:52.308Z,101313.56
2022-11-06T07:32:54.187Z,101313.22
2022-11-06T07:33:53.604Z,101312.38
2022-11-06T07:34:55.088Z,101312.47
2022-11-06T07:35:55.354Z,101312.36
2022-11-06T07:36:55.217Z,101311.85
2022-11-06T07:37:56.792Z,101311.55
2022-11-06T07:38:57.638Z,101311.13
2022-11-06T07:39:58.148Z,101310.53
2022-11-06T07:40:58.433Z,101310.14
2022-11-06T07:41:59.347Z,101310.22
2022-11-06T07:42:59.734Z,101310.30
2022-11-06T07:43:59.464Z,101310.55
2022-11-06T07:44:59.779Z,101310.66
2022-11-06T07:46:01.258Z,101310.42
2022-11-06T07:47:01.481Z,101310.11
2022-11-06T07:48:01.881Z,101309.21
2022-11-06T07:49:02.176Z,101308.81
2022-11-06T07:50:02.687Z,101308.08
2022-11-06T07:50:15.820Z,101297.92
2022-11-06T07:51:17.870Z,101297.00
2022-11-06T07:52:17.369Z,101296.86
2022-11-06T07:53:19.172Z,101296.43
2022-11-06T07:54:19.638Z,101295.77
2022-11-06T07:55:20.214Z,101295.61
2022-11-06T07:56:20.038Z,101294.87
2022-11-06T07:57:20.281Z,101293.86
2022-11-06T07:58:22.133Z,101294.00
2022-11-06T07:59:22.835Z,101293.25
2022-11-06T08:00:22.611Z,101292.69
2022-11-06T08:01:23.899Z,101292.27
2022-11-06T08:02:23.558Z,101291.45
2022-11-06T08:03:24.107Z,101290.52
2022-11-06T08:04:25.898Z,101290.21
2022-11-06T08:05:26.351Z,101289.14
2022-11-06T08:06:27.034Z,101288.47
2022-11-06T08:07:26.135Z,101287.82
2022-11-06T08:08:27.673Z,101287.40
2022-11-06T08:09:28.613Z,101287.50
2022-11-06T08:10:28.100Z,101287.49
2022-11-06T08:11:28.819Z,101287.52
2022-11-06T08:12:30.526Z,101287.27
2022-11-06T08:12:39.137Z,101281.86
2022-11-06T08:14:03.931Z,101274.14
2022-11-06T08:15:04.878Z,101273.97
2022-11-06T08:16:05.723Z,101274.14
2022-11-06T08:17:07.267Z,101274.02
2022-11-06T08:18:06.200Z,101274.53
2022-11-06T08:19:07.162Z,101274.79
2022-11-06T08:20:07.820Z,101274.67
2022-11-06T08:21:08.568Z,101275.19
2022-11-06T08:22:08.400Z,101275.00
2022-11-06T08:23:08.144Z,101274.08
2022-11-06T08:24:09.996Z,101273.49
2022-11-06T08:25:10.899Z,101272.54
2022-11-06T08:26:11.516Z,101272.38
2022-11-06T08:27:11.208Z,101271.46
2022-11-06T08:28:12.188Z,101270.27
2022-11-06T08:29:12.619Z,101268.25
2022-11-06T08:30:14.350Z,101267.48
2022-11-06T08:31:14.896Z,101266.28
2022-11-06T08:32:15.861Z,101265.88
2022-11-06T08:33:15.472Z,101265.28
2022-11-06T08:33:26.476Z,101259.28
2022-11-06T08:34:27.335Z,101259.12
2022-11-06T08:35:29.251Z,101258.77
2022-11-06T08:36:29.062Z,101258.61
2022-11-06T08:37:30.299Z,101258.27
2022-11-06T08:38:30.071Z,101257.94
2022-11-06T08:40:03.573Z,101249.09
2022-11-06T08:41:04.639Z,101248.59
2022-11-06T08:42:04.492Z,101247.50
2022-11-06T08:43:06.136Z,101247.08
2022-11-06T08:44:06.358Z,101246.41
2022-11-06T08:45:06.143Z,101245.74
2022-11-06T08:46:06.738Z,101244.23
2022-11-06T08:47:07.459Z,101243.53
2022-11-06T08:48:09.413Z,101242.52
2022-11-06T08:49:09.183Z,101241.40
2022-11-06T08:50:10.310Z,101240.63
2022-11-06T08:51:11.224Z,101239.71
2022-11-06T08:52:11.288Z,101238.98
2022-11-06T08:53:12.808Z,101237.91
2022-11-06T08:54:12.155Z,101236.80
2022-11-06T08:55:12.923Z,101235.44
2022-11-06T08:56:13.968Z,101234.57
2022-11-06T08:57:14.071Z,101233.39
2022-11-06T08:58:13.283Z,101232.90
2022-11-06T08:59:14.304Z,101232.20
2022-11-06T09:00:14.884Z,101231.25
2022-11-06T09:00:24.532Z,101217.28
2022-11-06T09:01:26.494Z,101217.45
2022-11-06T09:02:26.237Z,101216.95
2022-11-06T09:03:27.130Z,101216.95
2022-11-06T09:04:29.026Z,101215.60
2022-11-06T09:05:29.786Z,101215.11
2022-11-06T09:06:30.524Z,101214.27
2022-11-06T09:07:31.073Z,101214.44
2022-11-06T09:08:31.938Z,101214.09
2022-11-06T09:09:31.078Z,101214.66
2022-11-06T09:10:32.955Z,101214.91
2022-11-06T09:11:33.079Z,101214.66
2022-11-06T09:12:32.299Z,101213.80
2022-11-06T09:13:34.006Z,101213.36
2022-11-06T09:14:33.918Z,101212.52
2022-11-06T09:15:34.814Z,101211.32
2022-11-06T09:16:35.660Z,101210.58
2022-11-06T09:17:37.520Z,101208.95
2022-11-06T09:18:36.685Z,101207.84
2022-11-06T09:19:37.535Z,101206.98
2022-11-06T09:20:38.398Z,101206.05
2022-11-06T09:21:40.269Z,101204.84
2022-11-06T09:22:39.396Z,101203.54
2022-11-06T09:23:41.264Z,101202.27
2022-11-06T09:25:02.607Z,101200.45
2022-11-06T09:25:42.959Z,101199.60
2022-11-06T09:26:42.244Z,101198.38
2022-11-06T09:27:43.131Z,101196.68
2022-11-06T09:28:45.066Z,101195.21
2022-11-06T09:29:44.266Z,101193.83
2022-11-06T09:30:46.173Z,101192.11
2022-11-06T09:31:05.965Z,101176.21
2022-11-06T09:32:02.842Z,101176.04
2022-11-06T09:33:07.910Z,101175.79
2022-11-06T09:34:04.352Z,101175.42
2022-11-06T09:35:07.227Z,101174.90
2022-11-06T09:36:06.060Z,101174.03
2022-11-06T09:37:06.880Z,101173.57
2022-11-06T09:38:07.042Z,101172.63
2022-11-06T09:39:08.559Z,101172.02
2022-11-06T09:40:08.348Z,101171.04
2022-11-06T09:40:24.856Z,101154.95
2022-11-06T09:41:21.442Z,101154.27
2022-11-06T09:42:22.258Z,101153.58
2022-11-06T09:43:50.227Z,101152.20
2022-11-06T09:44:22.759Z,101152.06
2022-11-06T09:45:23.299Z,101151.42
2022-11-06T09:46:23.432Z,101150.81
2022-11-06T09:47:24.285Z,101150.93
2022-11-06T09:48:25.138Z,101151.05
2022-11-06T09:49:26.017Z,101150.85
2022-11-06T09:50:26.907Z,101151.05
2022-11-06T09:51:27.749Z,101151.50
2022-11-06T09:52:28.565Z,101151.34
2022-11-06T09:52:43.310Z,101152.61
2022-11-06T09:53:43.868Z,101152.11
2022-11-06T09:54:42.363Z,101151.85
2022-11-06T09:55:43.179Z,101151.58
2022-11-06T09:56:44.041Z,101151.72
2022-11-06T09:57:44.116Z,101151.16
2022-11-06T09:58:46.021Z,101151.07
2022-11-06T09:59:45.951Z,101150.17
2022-11-06T10:00:46.804Z,101150.06
2022-11-06T10:01:47.777Z,101149.08
2022-11-06T10:02:48.131Z,101148.60
2022-11-06T10:03:48.296Z,101148.30
2022-11-06T10:04:49.424Z,101147.06
2022-11-06T10:05:49.261Z,101146.11
2022-11-06T10:06:51.106Z,101145.59
2022-11-06T10:07:50.890Z,101144.63
2022-11-06T10:08:03.707Z,101129.08
2022-11-06T10:09:04.878Z,101129.08
2022-11-06T10:10:06.759Z,101129.50
2022-11-06T10:11:04.852Z,101130.14
2022-11-06T10:12:05.523Z,101130.98
2022-11-06T10:13:06.464Z,101131.83
2022-11-06T10:14:08.427Z,101132.42
2022-11-06T10:15:08.368Z,101132.08
2022-11-06T10:16:09.218Z,101132.42
2022-11-06T10:17:10.075Z,101133.28
2022-11-06T10:18:12.592Z,101133.41
2022-11-06T10:19:12.036Z,101133.73
2022-11-06T10:20:12.776Z,101133.41
2022-11-06T10:21:14.313Z,101133.90
2022-11-06T10:22:15.124Z,101133.76
2022-11-06T10:23:01.129Z,101132.42
2022-11-06T10:24:00.160Z,101131.91
2022-11-06T10:25:01.324Z,101132.19
2022-11-06T10:26:00.834Z,101133.47
2022-11-06T10:27:01.303Z,101134.10
2022-11-06T10:28:02.046Z,101134.39
2022-11-06T10:29:02.474Z,101135.06
2022-11-06T10:30:04.310Z,101136.02
2022-11-06T10:31:04.125Z,101136.27
2022-11-06T10:32:04.372Z,101136.98
2022-11-06T10:33:06.235Z,101138.04
2022-11-06T10:34:06.304Z,101140.19
2022-11-06T10:35:06.128Z,101142.09
2022-11-06T10:36:06.637Z,101143.52
2022-11-06T10:37:07.853Z,101145.26
2022-11-06T10:37:20.755Z,101170.89
2022-11-06T10:38:21.497Z,101170.56
2022-11-06T10:39:21.599Z,101170.02
2022-11-06T10:40:22.942Z,101169.71
2022-11-06T10:41:22.849Z,101169.75
2022-11-06T10:42:23.653Z,101169.58
2022-11-06T10:43:23.745Z,101169.55
2022-11-06T10:44:26.701Z,101169.63
2022-11-06T10:45:25.609Z,101169.59
2022-11-06T10:46:25.700Z,101169.84
2022-11-06T10:47:29.709Z,101170.06
2022-11-06T10:48:31.777Z,101170.14
2022-11-06T10:49:37.862Z,101170.31
2022-11-06T10:52:42.311Z,101150.03
2022-11-06T10:53:34.653Z,101149.86
2022-11-06T10:55:34.103Z,101148.25
2022-11-06T10:57:12.914Z,101149.23
2022-11-06T10:57:20.943Z,101147.25
2022-11-06T10:57:42.064Z,101145.82
2022-11-06T10:58:48.416Z,101144.78
2022-11-06T10:59:57.166Z,101143.56
2022-11-06T11:04:01.286Z,101142.80
2022-11-06T11:04:59.028Z,101141.00
2022-11-06T11:06:55.449Z,101119.81
2022-11-06T11:08:05.774Z,101119.48
2022-11-06T11:10:32.023Z,101119.02
2022-11-06T11:11:22.822Z,101117.84
2022-11-06T11:13:24.532Z,101117.16
2022-11-06T11:14:18.066Z,101118.09
2022-11-06T11:15:17.885Z,101118.17
2022-11-06T11:16:18.850Z,101119.02
2022-11-06T11:16:35.376Z,101120.50